Time;durP1;ratioP1;P1;durP2;ratioP2;P2;SDS_P1;SDS_P2;PMS_P1;PMS_P2;Temp;Humidity;BMP_temperature;BMP_pressure;BME280_temperature;BME280_humidity;BME280_pressure;Samples;Min_cycle;Max_cycle;Signal;HPM_P1;HPM_P2
2022/06/06 00:01:38;;;;;;;5.65;5.35;;;22.30;61.70;;;;;;5013118;28;20184;-72
2022/06/06 00:04:03;;;;;;;6.53;6.03;;;22.30;61.80;;;;;;5016776;28;20234;-75
2022/06/06 00:06:29;;;;;;;5.47;5.07;;;22.30;61.70;;;;;;5013675;28;20179;-75
2022/06/06 00:08:55;;;;;;;6.63;6.13;;;22.20;61.50;;;;;;5021123;28;20212;-75
2022/06/06 00:11:20;;;;;;;6.95;6.35;;;22.20;61.80;;;;;;5015284;28;20587;-73
2022/06/06 00:13:47;;;;;;;5.78;5.32;;;22.20;61.70;;;;;;5016143;28;20263;-77
2022/06/06 00:16:13;;;;;;;5.53;4.97;;;22.20;62.10;;;;;;5015025;28;20241;-74
2022/06/06 00:18:39;;;;;;;6.18;5.68;;;22.20;62.20;;;;;;5008778;28;20275;-76
2022/06/06 00:21:08;;;;;;;6.28;5.88;;;22.20;62.10;;;;;;5014540;28;20571;-73
2022/06/06 00:23:34;;;;;;;6.35;5.75;;;22.20;62.00;;;;;;5014068;28;20211;-77
2022/06/06 00:26:00;;;;;;;6.90;6.22;;;22.20;62.40;;;;;;5015436;28;20293;-74
2022/06/06 00:28:26;;;;;;;6.30;5.70;;;22.20;62.30;;;;;;5017653;28;20199;-75
2022/06/06 00:30:57;;;;;;;6.20;5.78;;;22.20;62.60;;;;;;5017981;28;20233;-75
2022/06/06 00:36:07;;;;;;;5.70;5.35;;;22.10;62.90;;;;;;5012780;28;20183;-76
2022/06/06 00:38:32;;;;;;;5.93;5.38;;;22.10;63.00;;;;;;5016955;28;20658;-76
2022/06/06 00:40:59;;;;;;;6.05;5.43;;;22.10;63.20;;;;;;5018032;28;20240;-75
2022/06/06 00:43:24;;;;;;;6.85;6.35;;;22.10;63.40;;;;;;5019674;28;20220;-75
2022/06/06 00:45:52;;;;;;;7.20;6.50;;;22.00;63.40;;;;;;5019393;28;20187;-75
2022/06/06 00:48:24;;;;;;;6.20;5.72;;;22.10;63.50;;;;;;5018964;28;20379;-75
2022/06/06 00:51:03;;;;;;;6.20;5.80;;;22.10;63.40;;;;;;5018329;28;20193;-76
2022/06/06 00:53:46;;;;;;;7.53;6.68;;;22.10;63.50;;;;;;5015862;28;20219;-73
2022/06/06 00:56:29;;;;;;;5.97;5.37;;;22.10;63.70;;;;;;5020102;28;20386;-76
2022/06/06 00:59:01;;;;;;;6.47;5.97;;;22.10;64.70;;;;;;5018785;28;20213;-77
2022/06/06 01:01:28;;;;;;;7.63;6.93;;;22.10;67.10;;;;;;5017257;28;20230;-77
2022/06/06 01:03:58;;;;;;;6.22;5.72;;;22.10;68.60;;;;;;5021168;28;20254;-76
2022/06/06 01:06:25;;;;;;;7.28;6.68;;;22.10;70.00;;;;;;5018303;28;20206;-75
2022/06/06 01:08:52;;;;;;;7.40;6.73;;;22.00;71.00;;;;;;5016794;28;20205;-78
2022/06/06 01:11:18;;;;;;;7.53;6.40;;;21.90;70.90;;;;;;5018568;28;20386;-76
2022/06/06 01:13:46;;;;;;;6.43;6.00;;;21.90;71.80;;;;;;5019416;28;20543;-76
2022/06/06 01:16:26;;;;;;;6.73;6.23;;;21.80;72.80;;;;;;5020210;28;20587;-77
2022/06/06 01:19:05;;;;;;;7.07;6.57;;;21.70;73.20;;;;;;5019146;28;20250;-80
2022/06/06 01:21:59;;;;;;;6.33;5.83;;;21.70;73.90;;;;;;5021381;28;20249;-75
2022/06/06 01:24:39;;;;;;;7.10;6.40;;;21.60;74.20;;;;;;5009865;28;20211;-76
2022/06/06 01:27:24;;;;;;;7.43;6.87;;;21.60;76.50;;;;;;5018038;28;20195;-78
2022/06/06 01:29:58;;;;;;;7.67;6.90;;;21.50;80.90;;;;;;5017694;28;20760;-81
2022/06/06 01:32:27;;;;;;;7.38;6.78;;;21.50;83.60;;;;;;5015089;28;20176;-79
2022/06/06 01:34:54;;;;;;;8.13;7.32;;;21.40;86.60;;;;;;5019275;28;20255;-67
2022/06/06 01:37:36;;;;;;;7.50;6.97;;;21.40;89.00;;;;;;5019896;28;20724;-68
2022/06/06 01:40:07;;;;;;;7.33;6.80;;;21.30;90.30;;;;;;5012979;28;20206;-67
2022/06/06 01:42:51;;;;;;;8.40;7.80;;;21.30;91.50;;;;;;5013831;28;20318;-71
2022/06/06 01:45:27;;;;;;;7.67;6.97;;;21.20;92.00;;;;;;5014300;28;20199;-64
2022/06/06 01:48:04;;;;;;;8.73;7.90;;;21.20;92.50;;;;;;5015318;28;20291;-68
2022/06/06 01:50:31;;;;;;;8.23;7.53;;;21.10;95.80;;;;;;5013278;28;20176;-68
2022/06/06 01:53:00;;;;;;;8.17;7.57;;;21.00;96.60;;;;;;5016418;28;20215;-65
2022/06/06 01:55:27;;;;;;;8.93;7.17;;;20.80;99.50;;;;;;5017751;28;20238;-69
2022/06/06 01:57:57;;;;;;;8.97;8.37;;;20.60;99.90;;;;;;5017855;28;20208;-66
2022/06/06 02:00:22;;;;;;;8.17;7.57;;;20.60;99.90;;;;;;5016986;28;20215;-69
2022/06/06 02:02:48;;;;;;;8.80;8.00;;;20.50;99.90;;;;;;5012719;28;20293;-67
2022/06/06 02:05:15;;;;;;;8.23;7.63;;;20.50;99.90;;;;;;5016250;28;20748;-68
2022/06/06 02:07:41;;;;;;;8.77;8.07;;;20.60;99.90;;;;;;5011992;28;20250;-70
2022/06/06 02:10:09;;;;;;;10.47;8.90;;;20.60;99.90;;;;;;5013329;28;20632;-68
2022/06/06 02:12:37;;;;;;;9.43;8.80;;;20.60;99.90;;;;;;5018423;28;20669;-66
2022/06/06 02:15:03;;;;;;;8.97;8.37;;;20.50;99.90;;;;;;5020362;28;20282;-65
2022/06/06 02:17:29;;;;;;;9.07;8.33;;;20.50;99.90;;;;;;5015742;28;20201;-65
2022/06/06 02:19:54;;;;;;;9.87;9.07;;;20.50;99.90;;;;;;5015928;28;20344;-68
2022/06/06 02:22:20;;;;;;;10.47;9.57;;;20.50;99.90;;;;;;5017218;28;20214;-64
2022/06/06 02:24:46;;;;;;;10.73;9.90;;;20.40;99.90;;;;;;5019742;28;20218;-66
2022/06/06 02:27:12;;;;;;;10.00;9.10;;;20.40;99.90;;;;;;5018152;28;20183;-65
2022/06/06 02:29:38;;;;;;;8.33;7.63;;;20.40;99.90;;;;;;5013017;28;20211;-66
2022/06/06 02:32:05;;;;;;;11.17;10.30;;;20.30;99.90;;;;;;5014586;28;20196;-65
2022/06/06 02:34:30;;;;;;;11.13;10.23;;;20.30;99.90;;;;;;5016772;28;20278;-61
2022/06/06 02:36:56;;;;;;;14.37;12.10;;;20.20;99.90;;;;;;5019500;28;20286;-87
2022/06/06 02:39:21;;;;;;;12.90;11.77;;;20.20;99.90;;;;;;5012221;28;20195;-68
2022/06/06 02:41:47;;;;;;;13.03;12.07;;;20.10;99.90;;;;;;5017969;28;20195;-64
2022/06/06 02:44:12;;;;;;;12.70;11.57;;;19.90;99.90;;;;;;5019348;28;20220;-66
2022/06/06 02:46:38;;;;;;;21.10;11.17;;;19.70;99.90;;;;;;5024270;28;20344;-66
2022/06/06 02:49:03;;;;;;;13.33;12.23;;;19.50;99.90;;;;;;5009453;28;20204;-63
2022/06/06 02:51:29;;;;;;;12.73;11.67;;;19.40;99.90;;;;;;5036645;28;20203;-64
2022/06/06 02:53:54;;;;;;;12.57;11.57;;;19.30;99.90;;;;;;5018131;28;20230;-64
2022/06/06 02:56:20;;;;;;;14.23;13.13;;;19.20;99.90;;;;;;5035012;28;20195;-66
2022/06/06 02:58:46;;;;;;;13.20;12.00;;;19.20;99.90;;;;;;5014847;28;20206;-66
2022/06/06 03:01:12;;;;;;;12.73;11.60;;;19.20;99.90;;;;;;5015680;28;20206;-66
2022/06/06 03:03:39;;;;;;;13.10;12.03;;;19.30;99.90;;;;;;5015523;28;20580;-66
2022/06/06 03:06:05;;;;;;;11.93;10.93;;;19.30;99.90;;;;;;5027344;28;20309;-63
2022/06/06 03:08:56;;;;;;;13.43;12.17;;;19.40;99.90;;;;;;5020467;28;20306;-67
2022/06/06 03:11:47;;;;;;;11.67;10.67;;;19.30;99.90;;;;;;5012111;28;20234;-65
2022/06/06 03:14:55;;;;;;;12.27;11.30;;;19.30;99.90;;;;;;5013377;28;20202;-65
2022/06/06 03:21:01;;;;;;;12.53;11.23;;;19.40;99.90;;;;;;5006213;28;20210;-66
2022/06/06 03:24:14;;;;;;;11.00;10.10;;;19.30;99.90;;;;;;5016775;28;20203;-65
2022/06/06 03:27:15;;;;;;;11.63;10.77;;;19.30;99.90;;;;;;5006411;28;20578;-68
2022/06/06 03:29:56;;;;;;;13.60;12.27;;;19.40;99.90;;;;;;5006407;28;20282;-66
2022/06/06 03:32:52;;;;;;;14.40;13.20;;;19.30;99.90;;;;;;5016666;28;20210;-68
2022/06/06 03:35:53;;;;;;;14.43;13.13;;;19.20;99.90;;;;;;5014064;28;20194;-67
2022/06/06 03:38:37;;;;;;;15.60;14.30;;;19.00;99.90;;;;;;5009924;28;20203;-66
2022/06/06 03:41:08;;;;;;;16.97;15.47;;;18.90;99.90;;;;;;5006386;28;20199;-67
2022/06/06 03:44:20;;;;;;;18.27;16.60;;;18.70;99.90;;;;;;5017351;28;20314;-66
2022/06/06 03:47:06;;;;;;;17.47;15.73;;;18.40;99.90;;;;;;5005907;28;20203;-66
2022/06/06 03:49:49;;;;;;;16.53;14.87;;;18.30;99.90;;;;;;5025790;28;20201;-65
2022/06/06 03:52:19;;;;;;;19.03;17.10;;;18.30;99.90;;;;;;5020919;28;20722;-67
2022/06/06 03:55:12;;;;;;;18.80;17.10;;;18.20;99.90;;;;;;5026971;28;20232;-66
2022/06/06 03:57:39;;;;;;;18.90;17.00;;;18.10;99.90;;;;;;5004151;28;20198;-66
2022/06/06 04:00:12;;;;;;;17.10;15.67;;;18.10;99.90;;;;;;5019905;28;20178;-65
2022/06/06 04:02:38;;;;;;;18.40;16.60;;;18.00;99.90;;;;;;5013762;28;20217;-65
2022/06/06 04:05:09;;;;;;;17.87;16.23;;;18.10;99.90;;;;;;5019727;28;20238;-67
2022/06/06 04:07:34;;;;;;;19.27;17.63;;;18.00;99.90;;;;;;5033104;28;20202;-65
2022/06/06 04:10:01;;;;;;;16.93;15.43;;;18.10;99.90;;;;;;5016405;28;20197;-66
2022/06/06 04:12:41;;;;;;;18.10;16.50;;;18.00;99.90;;;;;;5025141;28;20218;-64
2022/06/06 04:15:21;;;;;;;17.33;15.70;;;18.10;99.90;;;;;;5023544;28;20668;-65
2022/06/06 04:18:23;;;;;;;16.33;14.83;;;18.00;99.90;;;;;;5014524;28;20210;-66
2022/06/06 04:21:45;;;;;;;16.83;15.10;;;18.00;99.90;;;;;;5009742;28;20754;-67
2022/06/06 04:24:37;;;;;;;17.33;15.80;;;18.00;99.90;;;;;;4985582;28;21066;-66
2022/06/06 04:27:28;;;;;;;18.53;16.83;;;18.10;99.90;;;;;;4966881;28;20216;-66
2022/06/06 04:30:14;;;;;;;18.23;16.43;;;18.10;99.90;;;;;;5026432;28;20276;-67
2022/06/06 04:33:19;;;;;;;15.00;13.80;;;18.10;99.90;;;;;;5013637;28;20261;-67
2022/06/06 04:36:36;;;;;;;15.20;13.60;;;18.10;99.90;;;;;;5009614;28;20205;-67
2022/06/06 04:39:34;;;;;;;16.77;14.37;;;18.10;99.90;;;;;;4969620;28;20260;-67
2022/06/06 04:42:24;;;;;;;16.03;14.73;;;18.10;99.90;;;;;;5020054;28;20666;-66
2022/06/06 04:45:15;;;;;;;16.03;14.67;;;18.00;99.90;;;;;;5020875;28;20514;-66
2022/06/06 04:47:42;;;;;;;16.17;14.70;;;18.10;99.90;;;;;;5013465;28;20197;-67
2022/06/06 04:50:17;;;;;;;17.00;15.33;;;18.10;99.90;;;;;;5012679;28;20190;-67
2022/06/06 04:52:52;;;;;;;17.23;15.57;;;18.10;99.90;;;;;;5007728;28;20210;-67
2022/06/06 04:55:19;;;;;;;16.97;15.43;;;18.10;99.90;;;;;;5038325;28;20224;-68
2022/06/06 04:57:48;;;;;;;16.20;14.90;;;18.10;99.90;;;;;;5036152;28;20543;-67
2022/06/06 05:00:14;;;;;;;15.20;13.90;;;18.20;99.90;;;;;;5015084;28;20194;-66
2022/06/06 05:02:41;;;;;;;15.73;14.27;;;18.20;99.90;;;;;;5034647;28;20239;-66
2022/06/06 05:05:07;;;;;;;16.53;15.17;;;18.20;99.90;;;;;;5011196;28;20260;-67
2022/06/06 05:07:51;;;;;;;13.73;12.67;;;18.20;99.90;;;;;;5035074;28;20194;-66
2022/06/06 05:10:34;;;;;;;15.37;14.00;;;18.20;99.90;;;;;;5030312;28;20198;-67
2022/06/06 05:13:29;;;;;;;16.33;15.13;;;18.30;99.90;;;;;;5005708;28;20207;-67
2022/06/06 05:16:15;;;;;;;14.93;13.67;;;18.30;99.90;;;;;;5006645;28;20201;-68
2022/06/06 05:19:05;;;;;;;12.30;11.30;;;18.40;99.90;;;;;;5005997;28;20232;-66
2022/06/06 05:21:58;;;;;;;12.20;11.03;;;18.40;99.90;;;;;;5020463;28;20192;-68
2022/06/06 05:24:45;;;;;;;12.30;11.23;;;18.50;99.90;;;;;;5027234;28;20208;-70
2022/06/06 05:27:38;;;;;;;11.73;10.63;;;18.60;99.90;;;;;;5018690;28;20192;-66
2022/06/06 05:30:18;;;;;;;10.37;9.53;;;18.70;99.90;;;;;;5009073;28;20555;-67
2022/06/06 05:33:06;;;;;;;10.67;9.77;;;18.70;99.90;;;;;;5012092;28;20719;-67
2022/06/06 05:36:00;;;;;;;10.77;9.87;;;18.80;99.90;;;;;;5020574;28;20637;-67
2022/06/06 05:39:03;;;;;;;10.50;9.60;;;19.00;99.90;;;;;;5005432;28;20211;-68
2022/06/06 05:41:49;;;;;;;11.67;10.67;;;19.10;99.90;;;;;;5007240;28;20337;-68
2022/06/06 05:44:23;;;;;;;11.40;10.40;;;19.20;99.90;;;;;;5012370;28;20219;-68
2022/06/06 05:47:08;;;;;;;10.70;9.90;;;19.30;99.90;;;;;;5006662;28;20616;-68
2022/06/06 05:49:42;;;;;;;10.90;9.93;;;19.40;99.90;;;;;;5026601;28;20668;-68
2022/06/06 05:52:34;;;;;;;11.93;10.97;;;19.60;99.90;;;;;;5032493;28;20190;-66
2022/06/06 05:55:29;;;;;;;9.83;9.07;;;19.80;99.90;;;;;;4988063;28;990278;-66
2022/06/06 05:58:22;;;;;;;9.63;8.93;;;19.90;99.90;;;;;;5025918;28;20961;-66
2022/06/06 06:01:09;;;;;;;10.20;9.40;;;20.10;99.90;;;;;;5007704;28;20242;-66
2022/06/06 06:04:04;;;;;;;10.00;9.30;;;20.20;99.90;;;;;;5006034;28;20265;-66
2022/06/06 06:06:54;;;;;;;9.77;8.97;;;20.30;99.90;;;;;;5007906;28;20200;-67
2022/06/06 06:09:48;;;;;;;7.93;7.33;;;20.40;99.90;;;;;;5005704;28;20213;-67
2022/06/06 06:12:40;;;;;;;9.43;8.67;;;20.30;99.90;;;;;;5007997;28;20219;-66
2022/06/06 06:15:12;;;;;;;8.53;7.83;;;20.30;99.90;;;;;;5013415;28;20192;-67
2022/06/06 06:17:39;;;;;;;8.47;7.77;;;20.30;99.90;;;;;;5011131;28;20712;-67
2022/06/06 06:20:09;;;;;;;8.43;7.83;;;20.30;99.90;;;;;;5018902;28;20308;-67
2022/06/06 06:22:42;;;;;;;8.77;7.97;;;20.30;99.90;;;;;;5037780;28;20203;-66
2022/06/06 06:25:09;;;;;;;9.20;8.40;;;20.30;99.90;;;;;;5009659;28;20721;-66
2022/06/06 06:27:36;;;;;;;9.60;8.80;;;20.40;99.90;;;;;;5034404;28;20204;-66
2022/06/06 06:30:04;;;;;;;8.77;8.03;;;20.40;99.90;;;;;;5021387;28;20179;-67
2022/06/06 06:32:49;;;;;;;8.97;8.10;;;20.50;99.90;;;;;;5035639;28;20227;-68
2022/06/06 06:35:37;;;;;;;8.67;7.97;;;20.40;99.90;;;;;;5011469;28;20798;-66
2022/06/06 06:38:11;;;;;;;8.43;7.60;;;20.30;99.90;;;;;;5014444;28;20290;-66
2022/06/06 06:41:04;;;;;;;8.53;7.73;;;20.20;99.90;;;;;;5007108;28;20187;-65
2022/06/06 06:43:37;;;;;;;8.00;7.30;;;20.10;99.90;;;;;;5018111;28;20206;-66
2022/06/06 06:46:09;;;;;;;8.30;7.60;;;20.00;99.90;;;;;;5006993;28;20188;-65
2022/06/06 06:48:44;;;;;;;8.20;7.40;;;20.00;99.90;;;;;;5005345;28;20266;-65
2022/06/06 06:51:22;;;;;;;7.40;6.67;;;20.10;99.90;;;;;;5006733;28;20242;-66
2022/06/06 06:54:23;;;;;;;7.67;6.97;;;20.10;99.90;;;;;;5014488;28;20241;-65
2022/06/06 06:57:07;;;;;;;7.80;7.10;;;20.20;99.90;;;;;;5034719;28;20237;-66
2022/06/06 06:59:46;;;;;;;7.63;7.10;;;20.20;99.90;;;;;;5012176;28;20263;-66
2022/06/06 07:09:20;;;;;;;8.40;7.70;;;20.40;99.90;;;;;;5005043;28;20278;-67
2022/06/06 07:12:03;;;;;;;7.77;7.17;;;20.50;99.90;;;;;;5045986;28;20218;-65
2022/06/06 07:14:54;;;;;;;7.33;6.60;;;20.60;99.90;;;;;;5026137;28;20271;-67
2022/06/06 07:17:22;;;;;;;7.73;7.07;;;20.50;99.90;;;;;;5018779;28;20310;-66
2022/06/06 07:19:53;;;;;;;7.40;6.70;;;20.50;99.90;;;;;;5006291;28;20706;-65
2022/06/06 07:22:20;;;;;;;8.70;6.83;;;20.50;99.90;;;;;;5008126;28;20261;-66
2022/06/06 07:24:54;;;;;;;6.27;5.67;;;20.60;99.90;;;;;;5014604;28;20257;-65
2022/06/06 07:27:19;;;;;;;8.47;6.43;;;20.60;99.90;;;;;;5004875;28;20203;-66
2022/06/06 07:29:45;;;;;;;9.13;6.60;;;20.70;99.90;;;;;;5006391;28;20531;-66
2022/06/06 07:32:13;;;;;;;6.30;5.70;;;20.80;99.90;;;;;;5037785;28;20191;-67
2022/06/06 07:34:45;;;;;;;7.30;6.70;;;20.80;99.90;;;;;;5019561;28;20625;-66
2022/06/06 07:37:21;;;;;;;5.80;5.30;;;20.80;99.90;;;;;;5010689;28;20226;-66
2022/06/06 07:40:14;;;;;;;6.00;5.40;;;20.80;99.90;;;;;;5013457;28;20184;-66
2022/06/06 07:43:15;;;;;;;7.23;6.63;;;20.80;99.90;;;;;;5015053;28;20211;-67
2022/06/06 07:45:54;;;;;;;6.07;5.57;;;20.90;99.90;;;;;;5016946;28;20326;-67
2022/06/06 07:48:22;;;;;;;7.50;5.63;;;20.90;99.90;;;;;;5024218;28;20226;-66
2022/06/06 07:51:15;;;;;;;7.23;6.63;;;20.90;99.90;;;;;;5037229;28;20220;-67
2022/06/06 07:54:03;;;;;;;6.93;5.40;;;21.00;99.90;;;;;;5006226;28;20662;-68
2022/06/06 07:56:29;;;;;;;6.10;5.60;;;21.20;99.90;;;;;;5029915;28;20779;-64
2022/06/06 07:58:58;;;;;;;5.43;4.93;;;21.30;99.90;;;;;;5010516;28;20188;-66
2022/06/06 08:02:03;;;;;;;7.20;4.70;;;21.40;99.90;;;;;;5036701;28;20295;-67
2022/06/06 08:04:41;;;;;;;5.60;5.07;;;21.50;99.90;;;;;;5020852;28;20277;-67
2022/06/06 08:07:34;;;;;;;5.87;5.40;;;21.70;99.90;;;;;;5013708;28;20199;-66
2022/06/06 08:10:10;;;;;;;5.20;4.70;;;21.80;99.90;;;;;;5025925;28;20223;-66
2022/06/06 08:13:11;;;;;;;5.37;4.97;;;21.90;99.90;;;;;;5013690;28;20211;-64
2022/06/06 08:16:20;;;;;;;5.73;5.17;;;21.90;99.90;;;;;;5005834;28;20755;-65
2022/06/06 08:19:02;;;;;;;5.40;5.00;;;21.90;99.90;;;;;;5003799;28;20692;-65
2022/06/06 08:21:39;;;;;;;5.97;5.57;;;21.90;99.90;;;;;;5004025;28;20192;-65
2022/06/06 08:24:09;;;;;;;4.57;4.17;;;21.80;99.90;;;;;;5015445;28;20252;-66
2022/06/06 08:26:37;;;;;;;5.60;5.13;;;21.90;99.90;;;;;;5027858;28;20184;-66
2022/06/06 08:29:06;;;;;;;7.30;5.27;;;22.10;99.90;;;;;;5011015;28;20184;-66
2022/06/06 08:31:32;;;;;;;5.20;4.73;;;22.20;99.90;;;;;;5032678;28;20192;-66
2022/06/06 08:33:57;;;;;;;5.55;5.05;;;22.20;99.90;;;;;;5005388;28;20181;-65
2022/06/06 08:36:30;;;;;;;5.27;4.87;;;22.30;99.90;;;;;;5031558;28;20253;-65
2022/06/06 08:39:07;;;;;;;5.93;5.38;;;22.30;99.90;;;;;;5005622;28;20173;-66
2022/06/06 08:42:07;;;;;;;4.78;4.38;;;22.40;99.90;;;;;;5004789;28;20195;-67
2022/06/06 08:45:07;;;;;;;5.50;4.70;;;22.60;99.90;;;;;;5015559;28;20448;-66
2022/06/06 08:47:56;;;;;;;6.72;5.10;;;22.70;99.90;;;;;;5005566;28;20729;-66
2022/06/06 08:50:48;;;;;;;5.15;4.60;;;22.80;99.90;;;;;;5013308;28;20189;-66
2022/06/06 08:53:34;;;;;;;4.95;4.55;;;22.90;99.90;;;;;;5007400;28;20248;-65
2022/06/06 08:56:29;;;;;;;5.22;4.72;;;22.90;99.90;;;;;;5008663;28;20204;-65
2022/06/06 08:59:13;;;;;;;5.18;4.43;;;23.10;99.90;;;;;;5008720;28;20227;-65
2022/06/06 09:01:56;;;;;;;4.35;4.00;;;23.30;99.40;;;;;;5007119;28;20191;-65
2022/06/06 09:04:52;;;;;;;4.68;4.25;;;23.40;99.00;;;;;;5012822;28;20565;-66
2022/06/06 09:07:50;;;;;;;4.97;4.57;;;23.10;98.60;;;;;;5034171;28;20228;-69
2022/06/06 09:10:42;;;;;;;5.22;4.72;;;22.90;99.10;;;;;;5039537;28;20227;-67
2022/06/06 09:13:59;;;;;;;4.05;3.75;;;22.70;99.20;;;;;;5025136;28;20212;-66
2022/06/06 09:16:44;;;;;;;4.47;4.10;;;22.90;99.00;;;;;;5018746;28;20207;-66
2022/06/06 09:19:36;;;;;;;4.00;3.67;;;23.10;99.20;;;;;;5028182;28;20717;-66
2022/06/06 09:22:15;;;;;;;5.35;4.85;;;23.60;98.50;;;;;;5011649;28;20682;-66
2022/06/06 09:25:13;;;;;;;5.28;4.82;;;23.90;97.50;;;;;;5008597;28;20273;-65
2022/06/06 09:28:11;;;;;;;4.25;3.85;;;23.90;97.50;;;;;;5006863;28;20679;-66
2022/06/06 09:31:04;;;;;;;5.05;4.35;;;23.70;97.70;;;;;;5024556;28;20247;-65
2022/06/06 09:33:44;;;;;;;4.30;3.90;;;23.70;97.70;;;;;;5007182;28;20237;-66
2022/06/06 09:36:41;;;;;;;5.38;4.88;;;23.60;98.40;;;;;;5046941;28;20200;-66
2022/06/06 09:39:13;;;;;;;3.90;3.63;;;23.60;97.50;;;;;;5024667;28;20261;-66
2022/06/06 09:42:00;;;;;;;4.20;3.90;;;23.60;97.00;;;;;;5009243;28;20611;-67
2022/06/06 09:45:04;;;;;;;4.22;3.83;;;23.60;97.00;;;;;;5019781;28;20229;-66
2022/06/06 09:47:56;;;;;;;4.10;3.72;;;23.80;96.50;;;;;;5006070;28;20269;-66
2022/06/06 09:50:36;;;;;;;4.22;3.88;;;24.00;96.80;;;;;;5008001;28;20199;-66
2022/06/06 09:53:28;;;;;;;3.97;3.67;;;24.00;96.40;;;;;;5007373;28;20205;-66
2022/06/06 09:59:03;;;;;;;4.20;3.90;;;24.30;96.20;;;;;;5014057;28;20728;-65
2022/06/06 10:02:01;;;;;;;5.40;4.88;;;24.40;95.10;;;;;;5027719;28;20197;-66
2022/06/06 10:05:10;;;;;;;3.92;3.72;;;24.30;95.30;;;;;;5018570;28;20376;-65
2022/06/06 10:08:13;;;;;;;3.88;3.10;;;24.30;95.30;;;;;;5005959;28;20277;-68
2022/06/06 10:11:12;;;;;;;4.43;4.03;;;24.30;96.10;;;;;;5031583;28;20236;-67
2022/06/06 10:14:02;;;;;;;4.15;3.85;;;24.70;94.80;;;;;;5005810;28;20208;-67
2022/06/06 10:16:46;;;;;;;4.80;4.40;;;24.70;94.70;;;;;;5025875;28;20191;-67
2022/06/06 10:19:54;;;;;;;4.13;3.78;;;24.80;94.60;;;;;;5013971;28;20217;-67
2022/06/06 10:22:39;;;;;;;4.25;3.80;;;25.00;94.70;;;;;;5005757;28;20207;-66
2022/06/06 10:25:29;;;;;;;4.57;4.18;;;25.00;94.00;;;;;;5007414;28;20227;-65
2022/06/06 10:28:16;;;;;;;4.63;4.22;;;24.80;94.10;;;;;;5009247;28;20688;-65
2022/06/06 10:30:57;;;;;;;4.07;3.78;;;24.70;93.80;;;;;;5015955;28;20285;-67
2022/06/06 10:34:04;;;;;;;3.58;3.33;;;24.50;94.00;;;;;;5005477;28;20670;-67
2022/06/06 10:36:58;;;;;;;4.32;3.92;;;24.50;94.30;;;;;;5012811;28;20212;-66
2022/06/06 10:39:49;;;;;;;3.95;3.65;;;24.70;94.10;;;;;;5012004;28;20727;-66
2022/06/06 10:42:32;;;;;;;3.55;3.25;;;24.70;94.00;;;;;;5022298;28;20207;-68
2022/06/06 10:45:15;;;;;;;4.00;3.78;;;24.90;94.10;;;;;;5024169;28;20225;-67
2022/06/06 10:48:11;;;;;;;3.42;3.22;;;25.00;93.70;;;;;;5005985;28;20222;-65
2022/06/06 10:54:42;;;;;;;3.50;3.20;;;25.00;94.60;;;;;;5020823;28;20235;-65
2022/06/06 10:57:26;;;;;;;3.72;3.42;;;25.10;93.50;;;;;;5020708;28;20215;-66
2022/06/06 11:00:17;;;;;;;3.40;3.20;;;25.20;92.60;;;;;;5024072;28;20249;-65
2022/06/06 11:03:16;;;;;;;4.03;3.65;;;25.30;93.10;;;;;;5022332;28;20214;-65
2022/06/06 11:06:11;;;;;;;3.83;3.53;;;25.80;92.10;;;;;;5021334;28;20223;-66
2022/06/06 11:08:54;;;;;;;3.60;3.28;;;26.30;91.50;;;;;;5005213;28;20306;-67
2022/06/06 11:11:50;;;;;;;3.60;3.38;;;26.70;88.90;;;;;;5006085;28;20254;-68
2022/06/06 11:14:34;;;;;;;3.92;3.60;;;26.80;86.90;;;;;;5006612;28;20200;-66
2022/06/06 11:17:28;;;;;;;3.90;3.60;;;27.10;86.50;;;;;;5008047;28;20231;-74
2022/06/06 11:20:32;;;;;;;4.70;3.55;;;27.60;85.50;;;;;;5006047;28;20701;-75
2022/06/06 11:23:02;;;;;;;3.97;3.30;;;27.80;83.00;;;;;;5015730;28;20242;-66
2022/06/06 11:25:54;;;;;;;4.07;3.78;;;28.10;81.70;;;;;;5035752;28;20211;-65
2022/06/06 11:28:44;;;;;;;3.63;3.33;;;28.00;80.10;;;;;;5004592;28;20200;-65
2022/06/06 11:31:40;;;;;;;3.53;3.33;;;27.40;81.50;;;;;;5006849;28;20223;-68
2022/06/06 11:34:37;;;;;;;2.95;2.60;;;27.50;80.90;;;;;;5016770;28;20665;-66
2022/06/06 11:37:34;;;;;;;3.63;3.42;;;28.00;79.10;;;;;;5010425;28;20204;-65
2022/06/06 11:40:19;;;;;;;3.20;3.00;;;28.70;77.10;;;;;;5016024;28;20280;-67
2022/06/06 11:43:12;;;;;;;3.92;3.58;;;28.60;76.30;;;;;;5009666;28;20230;-66
2022/06/06 11:45:40;;;;;;;4.43;3.40;;;28.20;76.10;;;;;;5012432;28;20208;-65
2022/06/06 11:48:27;;;;;;;3.10;2.53;;;28.00;76.60;;;;;;5016151;28;20574;-65
2022/06/06 11:51:10;;;;;;;3.40;3.05;;;28.00;76.00;;;;;;5013037;28;20186;-67
2022/06/06 11:54:06;;;;;;;3.15;2.95;;;28.20;75.00;;;;;;5012446;28;20223;-66
2022/06/06 11:57:02;;;;;;;3.78;2.90;;;29.00;72.60;;;;;;5015377;28;20275;-69
2022/06/06 12:00:02;;;;;;;3.58;3.08;;;28.90;72.00;;;;;;5014819;28;20200;-75
2022/06/06 12:03:01;;;;;;;3.80;3.47;;;28.40;72.90;;;;;;5010941;28;20230;-76
2022/06/06 12:06:03;;;;;;;3.83;3.10;;;28.50;71.70;;;;;;5015914;28;20196;-77
2022/06/06 12:08:39;;;;;;;3.70;3.50;;;28.30;71.70;;;;;;5011889;28;20209;-76
2022/06/06 12:11:38;;;;;;;4.47;3.13;;;27.80;72.60;;;;;;5009386;28;20311;-74
2022/06/06 12:14:46;;;;;;;3.72;3.42;;;27.50;72.80;;;;;;5008981;28;20538;-76
2022/06/06 12:17:33;;;;;;;3.90;3.50;;;27.10;73.90;;;;;;5014963;28;20192;-74
2022/06/06 12:20:35;;;;;;;5.65;3.42;;;26.70;75.60;;;;;;5010141;28;20282;-74
2022/06/06 12:23:15;;;;;;;3.00;2.80;;;26.70;74.90;;;;;;5018138;28;20191;-76
2022/06/06 12:26:14;;;;;;;3.67;3.47;;;26.40;76.50;;;;;;5019641;28;20218;-77
2022/06/06 12:28:49;;;;;;;4.07;3.78;;;26.20;90.40;;;;;;5027766;28;20245;-67
2022/06/06 12:31:17;;;;;;;3.42;3.22;;;25.50;86.10;;;;;;5020515;28;20186;-74
2022/06/06 12:33:54;;;;;;;3.38;3.13;;;24.90;82.70;;;;;;5036969;28;20557;-74
2022/06/06 12:36:30;;;;;;;4.43;3.45;;;24.90;83.20;;;;;;5025127;28;20197;-76
2022/06/06 12:39:11;;;;;;;4.82;3.67;;;25.20;82.10;;;;;;5007556;28;20211;-76
2022/06/06 12:42:12;;;;;;;4.05;3.75;;;25.70;82.00;;;;;;5025357;28;20187;-76
2022/06/06 12:45:15;;;;;;;3.30;3.10;;;26.90;78.50;;;;;;5024342;28;20715;-74
2022/06/06 12:48:00;;;;;;;5.03;3.00;;;28.50;74.30;;;;;;5032972;28;20215;-76
2022/06/06 12:50:41;;;;;;;2.97;2.78;;;29.20;71.50;;;;;;5007106;28;20203;-77
2022/06/06 12:53:25;;;;;;;3.35;3.03;;;29.40;70.70;;;;;;5009036;28;20374;-76
2022/06/06 12:58:44;;;;;;;3.35;3.05;;;29.20;72.60;;;;;;5020779;28;20682;-73
2022/06/06 13:01:38;;;;;;;4.95;3.10;;;29.80;70.40;;;;;;5015395;28;20643;-72
2022/06/06 13:04:42;;;;;;;5.07;3.10;;;30.30;68.40;;;;;;5017223;28;20231;-72
2022/06/06 13:07:07;;;;;;;3.45;3.25;;;30.60;67.40;;;;;;5019480;28;20786;-73
2022/06/06 13:09:59;;;;;;;3.67;3.42;;;30.70;66.00;;;;;;5019389;28;20191;-72
2022/06/06 13:12:53;;;;;;;3.40;3.10;;;30.70;67.80;;;;;;5019455;28;20188;-74
2022/06/06 13:15:31;;;;;;;5.38;3.15;;;31.20;68.20;;;;;;5016066;28;20196;-70
2022/06/06 13:18:24;;;;;;;6.40;4.93;;;32.10;61.70;;;;;;5021190;28;20191;-71
2022/06/06 13:21:04;;;;;;;4.72;4.28;;;32.60;59.70;;;;;;5019748;28;20175;-71
2022/06/06 13:23:54;;;;;;;4.60;3.72;;;32.90;59.30;;;;;;5015804;28;20612;-72
2022/06/06 13:26:50;;;;;;;4.57;3.45;;;33.40;57.50;;;;;;5018103;28;20180;-72
2022/06/06 13:29:36;;;;;;;3.15;2.85;;;33.50;55.70;;;;;;5015586;28;20711;-72
2022/06/06 13:32:01;;;;;;;3.85;3.63;;;34.10;57.70;;;;;;5019995;28;20188;-73
2022/06/06 13:34:52;;;;;;;4.78;3.10;;;34.30;53.90;;;;;;5016945;28;20756;-72
2022/06/06 13:37:43;;;;;;;2.85;2.65;;;34.10;53.80;;;;;;5015711;28;20725;-76
2022/06/06 13:40:26;;;;;;;3.35;3.15;;;34.50;52.60;;;;;;5013343;28;20193;-72
2022/06/06 13:43:29;;;;;;;3.65;3.35;;;34.30;51.80;;;;;;5013478;28;20188;-72
2022/06/06 13:46:10;;;;;;;4.22;3.10;;;33.30;52.00;;;;;;5016377;28;20258;-73
2022/06/06 13:49:12;;;;;;;3.45;3.10;;;32.80;53.00;;;;;;5014377;28;20243;-74
2022/06/06 13:52:06;;;;;;;3.22;2.90;;;32.90;55.10;;;;;;5013620;28;20188;-70
2022/06/06 13:54:31;;;;;;;4.50;3.33;;;33.70;52.20;;;;;;5008439;28;20297;-73
2022/06/06 13:57:15;;;;;;;3.50;3.20;;;34.30;51.30;;;;;;5020615;28;20227;-73
2022/06/06 14:00:14;;;;;;;2.88;2.67;;;34.90;50.00;;;;;;5014709;28;20200;-72
2022/06/06 14:03:06;;;;;;;3.03;2.83;;;34.80;50.80;;;;;;5015565;28;20657;-74
2022/06/06 14:05:53;;;;;;;3.35;3.15;;;34.60;48.90;;;;;;5015261;28;20248;-72
2022/06/06 14:08:20;;;;;;;3.20;3.00;;;34.70;47.80;;;;;;5018091;28;20187;-70
2022/06/06 14:11:07;;;;;;;4.90;3.17;;;34.80;49.30;;;;;;5016888;28;20959;-73
2022/06/06 14:13:53;;;;;;;3.08;2.70;;;36.00;48.10;;;;;;5019518;28;20214;-74
2022/06/06 14:16:35;;;;;;;3.67;3.38;;;37.10;47.50;;;;;;5019889;28;20236;-71
2022/06/06 14:19:15;;;;;;;3.70;2.60;;;36.80;44.60;;;;;;5013999;28;20200;-73
2022/06/06 14:21:47;;;;;;;3.03;2.72;;;35.30;46.00;;;;;;5013390;28;20695;-72